近畿・中四国TAF電文


関空(RJBB)
3/3 2h
TAF RJBB 021705Z 0218/0400 30010KT 9999 FEW020 SCT045 BECMG
0222/0300 24008KT=

大阪(RJOO)
3/3 2h
TAF RJOO 021705Z 0218/0400 24009KT 9999 FEW020 SCT040=

新広島(RJOA)
3/3 2h
TAF RJOA 021705Z 0218/0400 30005KT 9999 FEW025=

岡山(RJOB)
3/3 2h
TAF RJOB 021708Z 0218/0400 25006KT 9999 FEW020 SCT040=

出雲(RJOC)
3/3 2h
TAF RJOC 021708Z 0218/0400 18009KT 9000 -SHSN FEW015 BKN040 BECMG
0223/0301 26016KT TEMPO 0301/0305 26021G32KT TEMPO
0305/0309 -TSRA FEW008 SCT020 FEW025CB BKN030 BECMG
0309/0312 17007KT BECMG 0315/0318 27013KT=

美保(RJOH)
3/3 2h
TAF RJOH 021708Z 0218/0400 20010KT 9000 -SHSN FEW015 BKN040 BECMG
0300/0302 26018KT TEMPO 0302/0305 26021G32KT TEMPO
0305/0309 26020G31KT -TSRA FEW008 SCT020 FEW025CB BKN030
BECMG 0309/0312 20007KT BECMG 0315/0318 27013KT=

高松(RJOT)
3/3 2h
TAF RJOT 021705Z 0218/0400 21006KT 9999 FEW025 TEMPO 0302/0306
26016G26KT=

松山(RJOM)
3/3 2h
TAF RJOM 021705Z 0218/0400 12008KT 9999 FEW025 BECMG 0223/0301
24012KT=

高知(RJOK)
3/3 2h
TAF RJOK 021705Z 0218/0400 35010KT 9999 FEW025 BECMG 0300/0302
18008KT BECMG 0306/0309 35009KT=
Copyright(c) 2014 International Meteorological & Oceanographic Consultants Co,.Ltd. All Rights Reserved. Design by http://f-tpl.com